sensor_id;sensor_type;location;lat;lon;timestamp;P1;durP1;ratioP1;P2;durP2;ratioP2
44165;SDS011;30476;53.468;9.826;2024-03-07T00:00:21;15.80;;;9.20;;
44165;SDS011;30476;53.468;9.826;2024-03-07T00:02:48;11.33;;;7.13;;
44165;SDS011;30476;53.468;9.826;2024-03-07T00:05:19;17.20;;;8.47;;
44165;SDS011;30476;53.468;9.826;2024-03-07T00:07:49;11.47;;;7.53;;
44165;SDS011;30476;53.468;9.826;2024-03-07T00:10:15;18.60;;;10.10;;
44165;SDS011;30476;53.468;9.826;2024-03-07T00:12:42;12.77;;;8.10;;
44165;SDS011;30476;53.468;9.826;2024-03-07T00:15:09;19.80;;;10.20;;
44165;SDS011;30476;53.468;9.826;2024-03-07T00:17:39;11.77;;;8.47;;
44165;SDS011;30476;53.468;9.826;2024-03-07T00:20:05;17.03;;;10.77;;
44165;SDS011;30476;53.468;9.826;2024-03-07T00:22:35;17.63;;;10.00;;
44165;SDS011;30476;53.468;9.826;2024-03-07T00:25:01;14.90;;;9.33;;
44165;SDS011;30476;53.468;9.826;2024-03-07T00:27:30;10.87;;;9.73;;
44165;SDS011;30476;53.468;9.826;2024-03-07T00:29:58;12.43;;;9.43;;
44165;SDS011;30476;53.468;9.826;2024-03-07T00:32:27;17.27;;;10.30;;
44165;SDS011;30476;53.468;9.826;2024-03-07T00:34:55;15.73;;;10.90;;
44165;SDS011;30476;53.468;9.826;2024-03-07T00:37:24;13.20;;;9.47;;
44165;SDS011;30476;53.468;9.826;2024-03-07T00:39:50;11.63;;;9.37;;
44165;SDS011;30476;53.468;9.826;2024-03-07T00:42:16;12.20;;;9.13;;
44165;SDS011;30476;53.468;9.826;2024-03-07T00:44:42;11.73;;;8.73;;
44165;SDS011;30476;53.468;9.826;2024-03-07T00:47:08;10.27;;;9.30;;
44165;SDS011;30476;53.468;9.826;2024-03-07T00:49:34;17.73;;;11.13;;
44165;SDS011;30476;53.468;9.826;2024-03-07T00:52:00;13.60;;;9.50;;
44165;SDS011;30476;53.468;9.826;2024-03-07T00:54:25;13.57;;;10.30;;
44165;SDS011;30476;53.468;9.826;2024-03-07T00:56:51;13.37;;;10.10;;
44165;SDS011;30476;53.468;9.826;2024-03-07T00:59:18;12.63;;;10.30;;
44165;SDS011;30476;53.468;9.826;2024-03-07T01:01:44;14.80;;;10.20;;
44165;SDS011;30476;53.468;9.826;2024-03-07T01:04:10;16.70;;;10.43;;
44165;SDS011;30476;53.468;9.826;2024-03-07T01:06:37;22.17;;;10.97;;
44165;SDS011;30476;53.468;9.826;2024-03-07T01:09:03;22.73;;;13.37;;
44165;SDS011;30476;53.468;9.826;2024-03-07T01:11:29;23.40;;;14.47;;
44165;SDS011;30476;53.468;9.826;2024-03-07T01:13:55;19.73;;;12.83;;
44165;SDS011;30476;53.468;9.826;2024-03-07T01:16:22;18.73;;;11.40;;
44165;SDS011;30476;53.468;9.826;2024-03-07T01:18:48;14.70;;;9.40;;
44165;SDS011;30476;53.468;9.826;2024-03-07T01:21:14;12.80;;;9.47;;
44165;SDS011;30476;53.468;9.826;2024-03-07T01:23:40;16.73;;;11.83;;
44165;SDS011;30476;53.468;9.826;2024-03-07T01:26:06;18.40;;;11.83;;
44165;SDS011;30476;53.468;9.826;2024-03-07T01:28:33;17.40;;;13.67;;
44165;SDS011;30476;53.468;9.826;2024-03-07T01:31:00;22.47;;;11.77;;
44165;SDS011;30476;53.468;9.826;2024-03-07T01:33:26;17.00;;;9.23;;
44165;SDS011;30476;53.468;9.826;2024-03-07T01:35:52;21.37;;;11.60;;
44165;SDS011;30476;53.468;9.826;2024-03-07T01:38:18;23.43;;;11.57;;
44165;SDS011;30476;53.468;9.826;2024-03-07T01:40:44;15.37;;;9.00;;
44165;SDS011;30476;53.468;9.826;2024-03-07T01:43:10;24.33;;;10.20;;
44165;SDS011;30476;53.468;9.826;2024-03-07T01:45:36;13.63;;;8.67;;
44165;SDS011;30476;53.468;9.826;2024-03-07T01:48:03;10.20;;;8.20;;
44165;SDS011;30476;53.468;9.826;2024-03-07T01:50:30;14.93;;;9.80;;
44165;SDS011;30476;53.468;9.826;2024-03-07T01:52:56;13.83;;;8.27;;
44165;SDS011;30476;53.468;9.826;2024-03-07T01:55:22;11.37;;;7.20;;
44165;SDS011;30476;53.468;9.826;2024-03-07T01:57:48;8.50;;;7.30;;
44165;SDS011;30476;53.468;9.826;2024-03-07T02:00:15;10.50;;;7.70;;
44165;SDS011;30476;53.468;9.826;2024-03-07T02:02:43;9.07;;;7.43;;
44165;SDS011;30476;53.468;9.826;2024-03-07T02:05:10;12.97;;;8.40;;
44165;SDS011;30476;53.468;9.826;2024-03-07T02:07:36;12.33;;;6.90;;
44165;SDS011;30476;53.468;9.826;2024-03-07T02:10:04;9.93;;;8.20;;
44165;SDS011;30476;53.468;9.826;2024-03-07T02:12:30;17.90;;;8.77;;
44165;SDS011;30476;53.468;9.826;2024-03-07T02:14:57;9.13;;;7.47;;
44165;SDS011;30476;53.468;9.826;2024-03-07T02:17:26;11.77;;;7.77;;
44165;SDS011;30476;53.468;9.826;2024-03-07T02:19:52;8.77;;;7.07;;
44165;SDS011;30476;53.468;9.826;2024-03-07T02:22:18;16.00;;;7.13;;
44165;SDS011;30476;53.468;9.826;2024-03-07T02:24:44;14.10;;;7.30;;
44165;SDS011;30476;53.468;9.826;2024-03-07T02:27:10;8.77;;;7.97;;
44165;SDS011;30476;53.468;9.826;2024-03-07T02:32:59;14.33;;;8.00;;
44165;SDS011;30476;53.468;9.826;2024-03-07T02:35:34;10.53;;;8.20;;
44165;SDS011;30476;53.468;9.826;2024-03-07T02:38:04;9.17;;;7.53;;
44165;SDS011;30476;53.468;9.826;2024-03-07T02:40:33;12.80;;;8.00;;
44165;SDS011;30476;53.468;9.826;2024-03-07T02:42:59;9.60;;;7.47;;
44165;SDS011;30476;53.468;9.826;2024-03-07T02:45:25;9.87;;;7.80;;
44165;SDS011;30476;53.468;9.826;2024-03-07T02:47:52;13.03;;;8.57;;
44165;SDS011;30476;53.468;9.826;2024-03-07T02:50:19;18.00;;;10.30;;
44165;SDS011;30476;53.468;9.826;2024-03-07T02:52:47;15.40;;;9.30;;
44165;SDS011;30476;53.468;9.826;2024-03-07T02:55:13;14.80;;;10.30;;
44165;SDS011;30476;53.468;9.826;2024-03-07T02:57:39;18.27;;;11.23;;
44165;SDS011;30476;53.468;9.826;2024-03-07T03:00:06;10.00;;;8.97;;
44165;SDS011;30476;53.468;9.826;2024-03-07T03:02:47;16.70;;;10.70;;
44165;SDS011;30476;53.468;9.826;2024-03-07T03:05:14;17.80;;;11.60;;
44165;SDS011;30476;53.468;9.826;2024-03-07T03:07:41;15.50;;;9.47;;
44165;SDS011;30476;53.468;9.826;2024-03-07T03:10:07;12.10;;;10.07;;
44165;SDS011;30476;53.468;9.826;2024-03-07T03:12:38;17.33;;;10.97;;
44165;SDS011;30476;53.468;9.826;2024-03-07T03:15:05;18.80;;;10.40;;
44165;SDS011;30476;53.468;9.826;2024-03-07T03:17:32;12.33;;;10.33;;
44165;SDS011;30476;53.468;9.826;2024-03-07T03:19:59;18.20;;;10.60;;
44165;SDS011;30476;53.468;9.826;2024-03-07T03:22:24;34.17;;;10.70;;
44165;SDS011;30476;53.468;9.826;2024-03-07T03:24:52;19.47;;;10.73;;
44165;SDS011;30476;53.468;9.826;2024-03-07T03:27:21;20.47;;;12.00;;
44165;SDS011;30476;53.468;9.826;2024-03-07T03:29:47;9.87;;;8.90;;
44165;SDS011;30476;53.468;9.826;2024-03-07T03:32:15;11.47;;;9.57;;
44165;SDS011;30476;53.468;9.826;2024-03-07T03:34:41;11.37;;;9.10;;
44165;SDS011;30476;53.468;9.826;2024-03-07T03:37:07;14.50;;;8.80;;
44165;SDS011;30476;53.468;9.826;2024-03-07T03:39:34;13.20;;;10.40;;
44165;SDS011;30476;53.468;9.826;2024-03-07T03:42:00;21.03;;;11.60;;
44165;SDS011;30476;53.468;9.826;2024-03-07T03:44:26;15.97;;;10.30;;
44165;SDS011;30476;53.468;9.826;2024-03-07T03:46:51;15.20;;;10.30;;
44165;SDS011;30476;53.468;9.826;2024-03-07T03:49:17;17.07;;;11.63;;
44165;SDS011;30476;53.468;9.826;2024-03-07T03:51:43;18.47;;;10.80;;
44165;SDS011;30476;53.468;9.826;2024-03-07T03:54:08;12.27;;;11.07;;
44165;SDS011;30476;53.468;9.826;2024-03-07T03:56:34;17.07;;;11.40;;
44165;SDS011;30476;53.468;9.826;2024-03-07T03:59:00;23.47;;;10.43;;
44165;SDS011;30476;53.468;9.826;2024-03-07T04:01:26;17.20;;;10.13;;
44165;SDS011;30476;53.468;9.826;2024-03-07T04:03:51;14.23;;;9.53;;
44165;SDS011;30476;53.468;9.826;2024-03-07T04:06:18;11.07;;;8.50;;
44165;SDS011;30476;53.468;9.826;2024-03-07T04:08:44;21.80;;;11.37;;
44165;SDS011;30476;53.468;9.826;2024-03-07T04:11:10;16.77;;;9.57;;
44165;SDS011;30476;53.468;9.826;2024-03-07T04:13:36;22.77;;;11.00;;
44165;SDS011;30476;53.468;9.826;2024-03-07T04:16:02;16.10;;;11.87;;
44165;SDS011;30476;53.468;9.826;2024-03-07T04:18:27;14.07;;;10.00;;
44165;SDS011;30476;53.468;9.826;2024-03-07T04:20:53;15.27;;;10.90;;
44165;SDS011;30476;53.468;9.826;2024-03-07T04:23:19;13.90;;;8.60;;
44165;SDS011;30476;53.468;9.826;2024-03-07T04:25:46;16.93;;;8.70;;
44165;SDS011;30476;53.468;9.826;2024-03-07T04:28:11;8.73;;;7.83;;
44165;SDS011;30476;53.468;9.826;2024-03-07T04:30:37;8.53;;;7.60;;
44165;SDS011;30476;53.468;9.826;2024-03-07T04:33:03;7.43;;;6.50;;
44165;SDS011;30476;53.468;9.826;2024-03-07T04:35:29;10.47;;;9.00;;
44165;SDS011;30476;53.468;9.826;2024-03-07T04:37:56;11.07;;;7.30;;
44165;SDS011;30476;53.468;9.826;2024-03-07T04:40:22;12.37;;;9.83;;
44165;SDS011;30476;53.468;9.826;2024-03-07T04:42:49;16.87;;;9.90;;
44165;SDS011;30476;53.468;9.826;2024-03-07T04:45:15;24.90;;;12.67;;
44165;SDS011;30476;53.468;9.826;2024-03-07T04:47:41;23.73;;;13.10;;
44165;SDS011;30476;53.468;9.826;2024-03-07T04:50:08;22.63;;;13.67;;
44165;SDS011;30476;53.468;9.826;2024-03-07T04:52:40;16.27;;;11.63;;
44165;SDS011;30476;53.468;9.826;2024-03-07T04:55:06;20.63;;;13.10;;
44165;SDS011;30476;53.468;9.826;2024-03-07T04:57:36;22.07;;;12.73;;
44165;SDS011;30476;53.468;9.826;2024-03-07T05:00:04;19.67;;;13.67;;
44165;SDS011;30476;53.468;9.826;2024-03-07T05:02:43;14.60;;;9.60;;
44165;SDS011;30476;53.468;9.826;2024-03-07T05:05:10;14.97;;;9.80;;
44165;SDS011;30476;53.468;9.826;2024-03-07T05:07:36;10.23;;;8.03;;
44165;SDS011;30476;53.468;9.826;2024-03-07T05:10:05;13.37;;;10.20;;
44165;SDS011;30476;53.468;9.826;2024-03-07T05:12:32;21.47;;;14.10;;
44165;SDS011;30476;53.468;9.826;2024-03-07T05:14:58;18.10;;;12.30;;
44165;SDS011;30476;53.468;9.826;2024-03-07T05:17:24;16.63;;;11.80;;
44165;SDS011;30476;53.468;9.826;2024-03-07T05:19:50;16.63;;;10.30;;
44165;SDS011;30476;53.468;9.826;2024-03-07T05:22:16;11.70;;;9.53;;
44165;SDS011;30476;53.468;9.826;2024-03-07T05:24:43;20.30;;;11.50;;
44165;SDS011;30476;53.468;9.826;2024-03-07T05:27:09;22.00;;;14.80;;
44165;SDS011;30476;53.468;9.826;2024-03-07T05:29:38;24.03;;;16.67;;
44165;SDS011;30476;53.468;9.826;2024-03-07T05:34:49;19.17;;;13.80;;
44165;SDS011;30476;53.468;9.826;2024-03-07T05:37:15;19.20;;;13.80;;
44165;SDS011;30476;53.468;9.826;2024-03-07T05:39:41;23.93;;;14.70;;
44165;SDS011;30476;53.468;9.826;2024-03-07T05:42:06;19.70;;;15.77;;
44165;SDS011;30476;53.468;9.826;2024-03-07T05:44:33;26.57;;;14.00;;
44165;SDS011;30476;53.468;9.826;2024-03-07T05:46:58;21.60;;;13.33;;
44165;SDS011;30476;53.468;9.826;2024-03-07T05:49:24;19.60;;;12.70;;
44165;SDS011;30476;53.468;9.826;2024-03-07T05:51:50;19.80;;;12.93;;
44165;SDS011;30476;53.468;9.826;2024-03-07T05:54:15;19.13;;;14.10;;
44165;SDS011;30476;53.468;9.826;2024-03-07T05:56:42;22.93;;;12.00;;
44165;SDS011;30476;53.468;9.826;2024-03-07T05:59:08;16.80;;;10.67;;
44165;SDS011;30476;53.468;9.826;2024-03-07T06:01:37;17.63;;;11.17;;
44165;SDS011;30476;53.468;9.826;2024-03-07T06:04:04;21.20;;;13.07;;
44165;SDS011;30476;53.468;9.826;2024-03-07T06:06:31;21.70;;;13.30;;
44165;SDS011;30476;53.468;9.826;2024-03-07T06:08:58;21.17;;;13.17;;
44165;SDS011;30476;53.468;9.826;2024-03-07T06:11:25;16.60;;;12.17;;
44165;SDS011;30476;53.468;9.826;2024-03-07T06:13:51;13.20;;;9.50;;
44165;SDS011;30476;53.468;9.826;2024-03-07T06:16:17;18.53;;;11.57;;
44165;SDS011;30476;53.468;9.826;2024-03-07T06:18:43;16.10;;;12.07;;
44165;SDS011;30476;53.468;9.826;2024-03-07T06:21:11;20.47;;;13.97;;
44165;SDS011;30476;53.468;9.826;2024-03-07T06:23:38;18.23;;;13.40;;
44165;SDS011;30476;53.468;9.826;2024-03-07T06:26:04;23.20;;;12.37;;
44165;SDS011;30476;53.468;9.826;2024-03-07T06:28:38;20.70;;;13.97;;
44165;SDS011;30476;53.468;9.826;2024-03-07T06:31:04;22.97;;;15.43;;
44165;SDS011;30476;53.468;9.826;2024-03-07T06:33:33;24.30;;;15.83;;
44165;SDS011;30476;53.468;9.826;2024-03-07T06:35:59;25.03;;;15.37;;
44165;SDS011;30476;53.468;9.826;2024-03-07T06:38:26;11.03;;;7.50;;
44165;SDS011;30476;53.468;9.826;2024-03-07T06:40:52;8.47;;;7.67;;
44165;SDS011;30476;53.468;9.826;2024-03-07T06:43:18;12.80;;;8.40;;
44165;SDS011;30476;53.468;9.826;2024-03-07T06:45:44;7.57;;;6.40;;
44165;SDS011;30476;53.468;9.826;2024-03-07T06:48:11;8.30;;;7.10;;
44165;SDS011;30476;53.468;9.826;2024-03-07T06:50:39;9.70;;;7.47;;
44165;SDS011;30476;53.468;9.826;2024-03-07T06:53:05;7.03;;;6.37;;
44165;SDS011;30476;53.468;9.826;2024-03-07T06:55:32;12.33;;;6.43;;
44165;SDS011;30476;53.468;9.826;2024-03-07T06:58:01;13.40;;;7.67;;
44165;SDS011;30476;53.468;9.826;2024-03-07T07:00:30;11.87;;;7.53;;
44165;SDS011;30476;53.468;9.826;2024-03-07T07:02:57;12.20;;;8.37;;
44165;SDS011;30476;53.468;9.826;2024-03-07T07:05:23;13.03;;;8.30;;
44165;SDS011;30476;53.468;9.826;2024-03-07T07:07:49;12.87;;;9.63;;
44165;SDS011;30476;53.468;9.826;2024-03-07T07:10:16;10.67;;;9.10;;
44165;SDS011;30476;53.468;9.826;2024-03-07T07:12:46;19.33;;;11.43;;
44165;SDS011;30476;53.468;9.826;2024-03-07T07:15:14;17.17;;;10.37;;
44165;SDS011;30476;53.468;9.826;2024-03-07T07:17:43;15.53;;;10.60;;
44165;SDS011;30476;53.468;9.826;2024-03-07T07:20:14;17.13;;;12.20;;
44165;SDS011;30476;53.468;9.826;2024-03-07T07:22:41;16.50;;;11.43;;
44165;SDS011;30476;53.468;9.826;2024-03-07T07:25:07;23.00;;;13.37;;
44165;SDS011;30476;53.468;9.826;2024-03-07T07:27:46;12.63;;;9.40;;
44165;SDS011;30476;53.468;9.826;2024-03-07T07:30:17;12.73;;;10.77;;
44165;SDS011;30476;53.468;9.826;2024-03-07T07:32:44;15.27;;;11.10;;
44165;SDS011;30476;53.468;9.826;2024-03-07T07:35:11;12.97;;;11.63;;
44165;SDS011;30476;53.468;9.826;2024-03-07T07:37:44;17.60;;;12.20;;
44165;SDS011;30476;53.468;9.826;2024-03-07T07:40:12;21.10;;;11.70;;
44165;SDS011;30476;53.468;9.826;2024-03-07T07:42:48;19.40;;;10.70;;
44165;SDS011;30476;53.468;9.826;2024-03-07T07:45:17;13.70;;;10.70;;
44165;SDS011;30476;53.468;9.826;2024-03-07T07:47:44;15.10;;;11.97;;
44165;SDS011;30476;53.468;9.826;2024-03-07T07:50:11;16.20;;;11.53;;
44165;SDS011;30476;53.468;9.826;2024-03-07T07:53:12;18.33;;;12.37;;
44165;SDS011;30476;53.468;9.826;2024-03-07T07:55:34;19.90;;;13.47;;
44165;SDS011;30476;53.468;9.826;2024-03-07T07:58:00;15.43;;;11.90;;
44165;SDS011;30476;53.468;9.826;2024-03-07T08:00:29;22.17;;;11.80;;
44165;SDS011;30476;53.468;9.826;2024-03-07T08:02:57;18.00;;;11.53;;
44165;SDS011;30476;53.468;9.826;2024-03-07T08:05:24;19.00;;;12.70;;
44165;SDS011;30476;53.468;9.826;2024-03-07T08:08:05;10.93;;;9.50;;
44165;SDS011;30476;53.468;9.826;2024-03-07T08:10:32;10.80;;;8.90;;
44165;SDS011;30476;53.468;9.826;2024-03-07T08:13:00;16.50;;;10.77;;
44165;SDS011;30476;53.468;9.826;2024-03-07T08:15:28;12.97;;;9.83;;
44165;SDS011;30476;53.468;9.826;2024-03-07T08:17:55;15.17;;;9.73;;
44165;SDS011;30476;53.468;9.826;2024-03-07T08:20:22;9.67;;;8.70;;
44165;SDS011;30476;53.468;9.826;2024-03-07T08:22:53;14.70;;;11.10;;
44165;SDS011;30476;53.468;9.826;2024-03-07T08:25:20;16.40;;;11.87;;
44165;SDS011;30476;53.468;9.826;2024-03-07T08:27:51;27.00;;;13.80;;
44165;SDS011;30476;53.468;9.826;2024-03-07T08:30:18;14.87;;;12.23;;
44165;SDS011;30476;53.468;9.826;2024-03-07T08:32:48;25.50;;;13.13;;
44165;SDS011;30476;53.468;9.826;2024-03-07T08:35:14;15.47;;;10.30;;
44165;SDS011;30476;53.468;9.826;2024-03-07T08:37:42;12.20;;;8.00;;
44165;SDS011;30476;53.468;9.826;2024-03-07T08:40:14;11.13;;;7.10;;
44165;SDS011;30476;53.468;9.826;2024-03-07T08:42:46;9.07;;;7.07;;
44165;SDS011;30476;53.468;9.826;2024-03-07T08:45:13;7.80;;;7.17;;
44165;SDS011;30476;53.468;9.826;2024-03-07T08:47:44;11.60;;;6.77;;
44165;SDS011;30476;53.468;9.826;2024-03-07T08:50:12;9.03;;;7.83;;
44165;SDS011;30476;53.468;9.826;2024-03-07T08:52:39;8.70;;;7.13;;
44165;SDS011;30476;53.468;9.826;2024-03-07T08:55:06;14.27;;;9.40;;
44165;SDS011;30476;53.468;9.826;2024-03-07T08:57:35;13.13;;;8.17;;
44165;SDS011;30476;53.468;9.826;2024-03-07T09:00:02;12.67;;;8.57;;
44165;SDS011;30476;53.468;9.826;2024-03-07T09:02:33;8.93;;;7.53;;
44165;SDS011;30476;53.468;9.826;2024-03-07T09:05:00;9.40;;;6.57;;
44165;SDS011;30476;53.468;9.826;2024-03-07T09:07:26;9.73;;;7.23;;
44165;SDS011;30476;53.468;9.826;2024-03-07T09:09:54;5.77;;;4.80;;
44165;SDS011;30476;53.468;9.826;2024-03-07T09:12:21;10.33;;;6.60;;
44165;SDS011;30476;53.468;9.826;2024-03-07T09:14:47;11.47;;;7.13;;
44165;SDS011;30476;53.468;9.826;2024-03-07T09:17:12;11.47;;;9.20;;
44165;SDS011;30476;53.468;9.826;2024-03-07T09:19:38;15.03;;;9.83;;
44165;SDS011;30476;53.468;9.826;2024-03-07T09:22:04;11.70;;;9.00;;
44165;SDS011;30476;53.468;9.826;2024-03-07T09:24:33;17.57;;;10.10;;
44165;SDS011;30476;53.468;9.826;2024-03-07T09:27:00;10.23;;;8.07;;
44165;SDS011;30476;53.468;9.826;2024-03-07T09:29:26;9.70;;;7.63;;
44165;SDS011;30476;53.468;9.826;2024-03-07T09:31:53;10.87;;;7.53;;
44165;SDS011;30476;53.468;9.826;2024-03-07T09:34:19;6.50;;;5.87;;
44165;SDS011;30476;53.468;9.826;2024-03-07T09:36:46;8.13;;;7.10;;
44165;SDS011;30476;53.468;9.826;2024-03-07T09:39:14;7.27;;;5.73;;
44165;SDS011;30476;53.468;9.826;2024-03-07T09:41:41;7.37;;;6.70;;
44165;SDS011;30476;53.468;9.826;2024-03-07T09:44:10;9.80;;;6.13;;
44165;SDS011;30476;53.468;9.826;2024-03-07T09:46:39;7.37;;;6.37;;
44165;SDS011;30476;53.468;9.826;2024-03-07T09:49:06;12.47;;;7.70;;
44165;SDS011;30476;53.468;9.826;2024-03-07T09:51:34;12.87;;;8.10;;
44165;SDS011;30476;53.468;9.826;2024-03-07T09:54:00;6.83;;;5.80;;
44165;SDS011;30476;53.468;9.826;2024-03-07T09:56:27;6.63;;;5.47;;
44165;SDS011;30476;53.468;9.826;2024-03-07T09:58:56;17.73;;;6.73;;
44165;SDS011;30476;53.468;9.826;2024-03-07T10:01:24;4.43;;;4.03;;
44165;SDS011;30476;53.468;9.826;2024-03-07T10:03:52;8.70;;;4.20;;
44165;SDS011;30476;53.468;9.826;2024-03-07T10:06:23;4.73;;;4.20;;
44165;SDS011;30476;53.468;9.826;2024-03-07T10:08:50;6.83;;;5.27;;
44165;SDS011;30476;53.468;9.826;2024-03-07T10:11:16;6.37;;;5.67;;
44165;SDS011;30476;53.468;9.826;2024-03-07T10:13:42;10.50;;;6.17;;
44165;SDS011;30476;53.468;9.826;2024-03-07T10:16:08;5.93;;;5.43;;
44165;SDS011;30476;53.468;9.826;2024-03-07T10:18:42;4.53;;;4.17;;
44165;SDS011;30476;53.468;9.826;2024-03-07T10:21:09;6.40;;;4.73;;
44165;SDS011;30476;53.468;9.826;2024-03-07T10:23:36;5.83;;;4.50;;
44165;SDS011;30476;53.468;9.826;2024-03-07T10:26:04;8.60;;;5.07;;
44165;SDS011;30476;53.468;9.826;2024-03-07T10:28:30;11.90;;;6.00;;
44165;SDS011;30476;53.468;9.826;2024-03-07T10:30:57;9.30;;;5.40;;
44165;SDS011;30476;53.468;9.826;2024-03-07T10:33:26;6.00;;;5.50;;
44165;SDS011;30476;53.468;9.826;2024-03-07T10:35:53;10.80;;;6.27;;
44165;SDS011;30476;53.468;9.826;2024-03-07T10:38:19;9.87;;;6.40;;
44165;SDS011;30476;53.468;9.826;2024-03-07T10:40:47;6.90;;;6.23;;
44165;SDS011;30476;53.468;9.826;2024-03-07T10:43:18;9.00;;;6.87;;
44165;SDS011;30476;53.468;9.826;2024-03-07T10:45:46;12.07;;;7.00;;
44165;SDS011;30476;53.468;9.826;2024-03-07T10:48:14;7.17;;;6.43;;
44165;SDS011;30476;53.468;9.826;2024-03-07T10:50:45;8.87;;;6.37;;
44165;SDS011;30476;53.468;9.826;2024-03-07T10:53:31;9.30;;;6.47;;
44165;SDS011;30476;53.468;9.826;2024-03-07T10:56:11;5.90;;;5.40;;
44165;SDS011;30476;53.468;9.826;2024-03-07T10:58:50;5.90;;;5.10;;
44165;SDS011;30476;53.468;9.826;2024-03-07T11:01:30;6.80;;;6.20;;
44165;SDS011;30476;53.468;9.826;2024-03-07T11:03:59;7.90;;;5.20;;
44165;SDS011;30476;53.468;9.826;2024-03-07T11:06:25;10.30;;;5.77;;
44165;SDS011;30476;53.468;9.826;2024-03-07T11:08:52;10.93;;;6.97;;
44165;SDS011;30476;53.468;9.826;2024-03-07T11:11:18;6.87;;;5.87;;
44165;SDS011;30476;53.468;9.826;2024-03-07T11:13:45;13.47;;;7.00;;
44165;SDS011;30476;53.468;9.826;2024-03-07T11:16:12;8.70;;;6.17;;
44165;SDS011;30476;53.468;9.826;2024-03-07T11:18:40;11.00;;;8.60;;
44165;SDS011;30476;53.468;9.826;2024-03-07T11:21:05;8.83;;;7.93;;
44165;SDS011;30476;53.468;9.826;2024-03-07T11:23:33;11.33;;;6.57;;
44165;SDS011;30476;53.468;9.826;2024-03-07T11:26:04;11.17;;;5.93;;
44165;SDS011;30476;53.468;9.826;2024-03-07T11:28:34;14.33;;;5.93;;
44165;SDS011;30476;53.468;9.826;2024-03-07T11:31:15;8.07;;;6.23;;
44165;SDS011;30476;53.468;9.826;2024-03-07T11:36:43;7.90;;;5.93;;
44165;SDS011;30476;53.468;9.826;2024-03-07T11:42:08;6.77;;;5.27;;
44165;SDS011;30476;53.468;9.826;2024-03-07T11:44:34;8.50;;;5.87;;
44165;SDS011;30476;53.468;9.826;2024-03-07T11:47:03;6.47;;;5.90;;
44165;SDS011;30476;53.468;9.826;2024-03-07T11:49:34;6.33;;;5.50;;
44165;SDS011;30476;53.468;9.826;2024-03-07T11:52:03;9.60;;;5.80;;
44165;SDS011;30476;53.468;9.826;2024-03-07T11:54:37;7.53;;;6.23;;
44165;SDS011;30476;53.468;9.826;2024-03-07T11:57:09;8.20;;;6.10;;
44165;SDS011;30476;53.468;9.826;2024-03-07T11:59:39;7.03;;;5.93;;
44165;SDS011;30476;53.468;9.826;2024-03-07T12:02:05;8.60;;;6.50;;
44165;SDS011;30476;53.468;9.826;2024-03-07T12:04:31;6.20;;;5.60;;
44165;SDS011;30476;53.468;9.826;2024-03-07T12:07:00;7.50;;;6.80;;
44165;SDS011;30476;53.468;9.826;2024-03-07T12:09:25;10.17;;;5.77;;
44165;SDS011;30476;53.468;9.826;2024-03-07T12:11:51;12.87;;;5.93;;
44165;SDS011;30476;53.468;9.826;2024-03-07T12:14:21;7.73;;;6.93;;
44165;SDS011;30476;53.468;9.826;2024-03-07T12:16:46;8.50;;;5.17;;
44165;SDS011;30476;53.468;9.826;2024-03-07T12:19:12;7.60;;;6.43;;
44165;SDS011;30476;53.468;9.826;2024-03-07T12:21:42;6.27;;;5.70;;
44165;SDS011;30476;53.468;9.826;2024-03-07T12:24:15;11.03;;;7.03;;
44165;SDS011;30476;53.468;9.826;2024-03-07T12:26:41;8.33;;;6.43;;
44165;SDS011;30476;53.468;9.826;2024-03-07T12:29:08;9.03;;;6.20;;
44165;SDS011;30476;53.468;9.826;2024-03-07T12:31:44;11.90;;;7.00;;
44165;SDS011;30476;53.468;9.826;2024-03-07T12:34:09;14.50;;;7.00;;
44165;SDS011;30476;53.468;9.826;2024-03-07T12:36:36;17.10;;;7.70;;
44165;SDS011;30476;53.468;9.826;2024-03-07T12:39:23;7.80;;;7.00;;
44165;SDS011;30476;53.468;9.826;2024-03-07T12:41:58;7.10;;;5.80;;
44165;SDS011;30476;53.468;9.826;2024-03-07T12:44:24;14.03;;;5.90;;
44165;SDS011;30476;53.468;9.826;2024-03-07T12:46:53;5.73;;;5.30;;
44165;SDS011;30476;53.468;9.826;2024-03-07T12:49:24;8.77;;;6.53;;
44165;SDS011;30476;53.468;9.826;2024-03-07T12:51:56;11.47;;;7.20;;
44165;SDS011;30476;53.468;9.826;2024-03-07T12:54:24;13.47;;;8.30;;
44165;SDS011;30476;53.468;9.826;2024-03-07T12:56:52;9.37;;;8.23;;
44165;SDS011;30476;53.468;9.826;2024-03-07T12:59:18;11.90;;;6.97;;
44165;SDS011;30476;53.468;9.826;2024-03-07T13:01:44;8.40;;;6.20;;
44165;SDS011;30476;53.468;9.826;2024-03-07T13:04:13;10.50;;;7.73;;
44165;SDS011;30476;53.468;9.826;2024-03-07T13:06:42;9.33;;;6.97;;
44165;SDS011;30476;53.468;9.826;2024-03-07T13:09:12;6.23;;;5.43;;
44165;SDS011;30476;53.468;9.826;2024-03-07T13:11:40;7.67;;;6.70;;
44165;SDS011;30476;53.468;9.826;2024-03-07T13:14:07;8.77;;;7.97;;
44165;SDS011;30476;53.468;9.826;2024-03-07T13:16:33;11.90;;;7.60;;
44165;SDS011;30476;53.468;9.826;2024-03-07T13:18:59;7.33;;;6.70;;
44165;SDS011;30476;53.468;9.826;2024-03-07T13:21:26;9.17;;;7.30;;
44165;SDS011;30476;53.468;9.826;2024-03-07T13:23:52;10.87;;;7.70;;
44165;SDS011;30476;53.468;9.826;2024-03-07T13:26:20;9.00;;;7.93;;
44165;SDS011;30476;53.468;9.826;2024-03-07T13:28:50;13.73;;;7.47;;
44165;SDS011;30476;53.468;9.826;2024-03-07T13:31:16;11.00;;;7.37;;
44165;SDS011;30476;53.468;9.826;2024-03-07T13:33:43;10.13;;;7.70;;
44165;SDS011;30476;53.468;9.826;2024-03-07T13:36:09;12.67;;;7.20;;
44165;SDS011;30476;53.468;9.826;2024-03-07T13:38:36;9.10;;;8.00;;
44165;SDS011;30476;53.468;9.826;2024-03-07T13:41:03;12.00;;;8.80;;
44165;SDS011;30476;53.468;9.826;2024-03-07T13:43:29;12.53;;;7.73;;
44165;SDS011;30476;53.468;9.826;2024-03-07T13:45:55;10.13;;;7.00;;
44165;SDS011;30476;53.468;9.826;2024-03-07T13:48:21;7.57;;;6.87;;
44165;SDS011;30476;53.468;9.826;2024-03-07T13:50:47;11.47;;;7.30;;
44165;SDS011;30476;53.468;9.826;2024-03-07T13:53:18;9.97;;;7.67;;
44165;SDS011;30476;53.468;9.826;2024-03-07T13:55:50;9.60;;;7.03;;
44165;SDS011;30476;53.468;9.826;2024-03-07T13:58:36;11.67;;;7.27;;
44165;SDS011;30476;53.468;9.826;2024-03-07T14:09:56;10.07;;;8.10;;
44165;SDS011;30476;53.468;9.826;2024-03-07T14:32:49;14.03;;;8.07;;
44165;SDS011;30476;53.468;9.826;2024-03-07T14:36:05;10.13;;;8.80;;
44165;SDS011;30476;53.468;9.826;2024-03-07T14:38:39;11.80;;;8.10;;
44165;SDS011;30476;53.468;9.826;2024-03-07T14:41:14;9.33;;;7.20;;
44165;SDS011;30476;53.468;9.826;2024-03-07T14:43:41;12.57;;;7.70;;
44165;SDS011;30476;53.468;9.826;2024-03-07T14:46:09;8.67;;;7.87;;
44165;SDS011;30476;53.468;9.826;2024-03-07T14:48:38;10.37;;;7.13;;
44165;SDS011;30476;53.468;9.826;2024-03-07T14:51:06;11.13;;;7.20;;
44165;SDS011;30476;53.468;9.826;2024-03-07T14:53:33;8.80;;;6.80;;
44165;SDS011;30476;53.468;9.826;2024-03-07T14:55:59;8.87;;;7.27;;
44165;SDS011;30476;53.468;9.826;2024-03-07T14:58:25;7.63;;;6.93;;
44165;SDS011;30476;53.468;9.826;2024-03-07T15:00:51;9.27;;;8.20;;
44165;SDS011;30476;53.468;9.826;2024-03-07T15:03:19;9.33;;;7.57;;
44165;SDS011;30476;53.468;9.826;2024-03-07T15:05:45;12.30;;;7.40;;
44165;SDS011;30476;53.468;9.826;2024-03-07T15:08:12;14.47;;;10.77;;
44165;SDS011;30476;53.468;9.826;2024-03-07T15:10:41;10.00;;;6.30;;
44165;SDS011;30476;53.468;9.826;2024-03-07T15:13:11;8.60;;;6.67;;
44165;SDS011;30476;53.468;9.826;2024-03-07T15:15:38;14.60;;;7.50;;
44165;SDS011;30476;53.468;9.826;2024-03-07T15:18:05;10.10;;;7.60;;